sensor_id;sensor_type;location;lat;lon;timestamp;pressure;altitude;pressure_sealevel;temperature;humidity
28310;BME280;15571;50.974;13.936;2024-02-15T00:01:19;100493.63;;;10.28;100.00
28310;BME280;15571;50.974;13.936;2024-02-15T00:04:22;100499.75;;;10.26;100.00
28310;BME280;15571;50.974;13.936;2024-02-15T00:07:28;100484.91;;;10.30;100.00
28310;BME280;15571;50.974;13.936;2024-02-15T00:10:30;100484.91;;;10.31;100.00
28310;BME280;15571;50.974;13.936;2024-02-15T00:13:32;100475.31;;;10.33;100.00
28310;BME280;15571;50.974;13.936;2024-02-15T00:16:34;100479.69;;;10.28;100.00
28310;BME280;15571;50.974;13.936;2024-02-15T00:19:37;100477.06;;;10.34;100.00
28310;BME280;15571;50.974;13.936;2024-02-15T00:22:40;100474.44;;;10.25;100.00
28310;BME280;15571;50.974;13.936;2024-02-15T00:25:42;100478.78;;;10.20;100.00
28310;BME280;15571;50.974;13.936;2024-02-15T00:28:45;100474.41;;;10.09;100.00
28310;BME280;15571;50.974;13.936;2024-02-15T00:31:47;100470.97;;;10.17;100.00
28310;BME280;15571;50.974;13.936;2024-02-15T00:34:52;100482.28;;;10.06;100.00
28310;BME280;15571;50.974;13.936;2024-02-15T00:37:55;100478.78;;;10.20;100.00
28310;BME280;15571;50.974;13.936;2024-02-15T00:40:58;100478.78;;;10.13;100.00
28310;BME280;15571;50.974;13.936;2024-02-15T00:44:00;100478.78;;;10.13;100.00
28310;BME280;15571;50.974;13.936;2024-02-15T00:47:02;100484.03;;;10.13;100.00
28310;BME280;15571;50.974;13.936;2024-02-15T00:50:06;100478.78;;;10.13;100.00
28310;BME280;15571;50.974;13.936;2024-02-15T00:53:09;100471.81;;;10.09;100.00
28310;BME280;15571;50.974;13.936;2024-02-15T00:56:11;100473.56;;;10.21;100.00
28310;BME280;15571;50.974;13.936;2024-02-15T00:59:13;100462.22;;;10.19;100.00
28310;BME280;15571;50.974;13.936;2024-02-15T01:02:15;100478.78;;;10.13;100.00
28310;BME280;15571;50.974;13.936;2024-02-15T01:05:18;100477.03;;;10.22;100.00
28310;BME280;15571;50.974;13.936;2024-02-15T01:08:24;100470.06;;;10.24;100.00
28310;BME280;15571;50.974;13.936;2024-02-15T01:11:26;100468.34;;;10.23;100.00
28310;BME280;15571;50.974;13.936;2024-02-15T01:14:28;100471.84;;;10.28;100.00
28310;BME280;15571;50.974;13.936;2024-02-15T01:17:31;100477.03;;;10.22;100.00
28310;BME280;15571;50.974;13.936;2024-02-15T01:20:33;100477.06;;;10.28;100.00
28310;BME280;15571;50.974;13.936;2024-02-15T01:23:36;100472.69;;;10.27;100.00
28310;BME280;15571;50.974;13.936;2024-02-15T01:26:40;100466.59;;;10.25;100.00
28310;BME280;15571;50.974;13.936;2024-02-15T01:29:42;100474.44;;;10.33;100.00
28310;BME280;15571;50.974;13.936;2024-02-15T01:32:44;100476.16;;;10.34;100.00
28310;BME280;15571;50.974;13.936;2024-02-15T01:35:46;100481.41;;;10.32;100.00
28310;BME280;15571;50.974;13.936;2024-02-15T01:38:50;100476.19;;;10.31;100.00
28310;BME280;15571;50.974;13.936;2024-02-15T01:41:52;100471.81;;;10.31;100.00
28310;BME280;15571;50.974;13.936;2024-02-15T01:44:56;100460.47;;;10.37;100.00
28310;BME280;15571;50.974;13.936;2024-02-15T01:47:58;100461.38;;;10.40;100.00
28310;BME280;15571;50.974;13.936;2024-02-15T01:51:00;100459.63;;;10.36;100.00
28310;BME280;15571;50.974;13.936;2024-02-15T01:54:06;100455.28;;;10.40;100.00
28310;BME280;15571;50.974;13.936;2024-02-15T01:57:09;100454.41;;;10.42;100.00
28310;BME280;15571;50.974;13.936;2024-02-15T02:00:11;100455.25;;;10.37;100.00
28310;BME280;15571;50.974;13.936;2024-02-15T02:03:21;100454.41;;;10.42;100.00
28310;BME280;15571;50.974;13.936;2024-02-15T02:06:25;100450.91;;;10.42;100.00
28310;BME280;15571;50.974;13.936;2024-02-15T02:09:29;100454.38;;;10.39;100.00
28310;BME280;15571;50.974;13.936;2024-02-15T02:12:31;100454.41;;;10.42;100.00
28310;BME280;15571;50.974;13.936;2024-02-15T02:15:33;100454.41;;;10.42;100.00
28310;BME280;15571;50.974;13.936;2024-02-15T02:18:35;100457.88;;;10.41;100.00
28310;BME280;15571;50.974;13.936;2024-02-15T02:21:37;100452.66;;;10.45;100.00
28310;BME280;15571;50.974;13.936;2024-02-15T02:24:44;100443.03;;;10.61;100.00
28310;BME280;15571;50.974;13.936;2024-02-15T02:27:52;100445.63;;;10.62;100.00
28310;BME280;15571;50.974;13.936;2024-02-15T02:30:54;100444.78;;;10.58;100.00
28310;BME280;15571;50.974;13.936;2024-02-15T02:33:57;100449.13;;;10.61;100.00
28310;BME280;15571;50.974;13.936;2024-02-15T02:36:59;100449.16;;;10.55;100.00
28310;BME280;15571;50.974;13.936;2024-02-15T02:40:03;100447.41;;;10.54;100.00
28310;BME280;15571;50.974;13.936;2024-02-15T02:43:07;100450.03;;;10.48;100.00
28310;BME280;15571;50.974;13.936;2024-02-15T02:46:10;100443.03;;;10.45;100.00
28310;BME280;15571;50.974;13.936;2024-02-15T02:49:12;100440.41;;;10.50;100.00
28310;BME280;15571;50.974;13.936;2024-02-15T02:52:14;100437.81;;;10.56;100.00
28310;BME280;15571;50.974;13.936;2024-02-15T02:55:16;100442.19;;;10.49;100.00
28310;BME280;15571;50.974;13.936;2024-02-15T02:58:20;100438.66;;;10.49;100.00
28310;BME280;15571;50.974;13.936;2024-02-15T03:01:22;100440.41;;;10.50;100.00
28310;BME280;15571;50.974;13.936;2024-02-15T03:04:25;100431.69;;;10.54;100.00
28310;BME280;15571;50.974;13.936;2024-02-15T03:07:27;100429.06;;;10.51;100.00
28310;BME280;15571;50.974;13.936;2024-02-15T03:10:29;100440.41;;;10.54;100.00
28310;BME280;15571;50.974;13.936;2024-02-15T03:13:32;100437.78;;;10.65;100.00
28310;BME280;15571;50.974;13.936;2024-02-15T03:16:34;100443.03;;;10.59;100.00
28310;BME280;15571;50.974;13.936;2024-02-15T03:19:36;100449.16;;;10.52;100.00
28310;BME280;15571;50.974;13.936;2024-02-15T03:22:38;100441.28;;;10.56;100.00
28310;BME280;15571;50.974;13.936;2024-02-15T03:25:40;100446.53;;;10.59;100.00
28310;BME280;15571;50.974;13.936;2024-02-15T03:28:44;100443.91;;;10.55;100.00
28310;BME280;15571;50.974;13.936;2024-02-15T03:31:48;100443.03;;;10.54;100.00
28310;BME280;15571;50.974;13.936;2024-02-15T03:34:50;100436.97;;;10.48;100.00
28310;BME280;15571;50.974;13.936;2024-02-15T03:37:54;100435.22;;;10.47;100.00
28310;BME280;15571;50.974;13.936;2024-02-15T03:40:56;100440.44;;;10.43;100.00
28310;BME280;15571;50.974;13.936;2024-02-15T03:44:00;100442.19;;;10.48;100.00
28310;BME280;15571;50.974;13.936;2024-02-15T03:47:02;100447.41;;;10.54;100.00
28310;BME280;15571;50.974;13.936;2024-02-15T03:50:08;100440.41;;;10.59;100.00
28310;BME280;15571;50.974;13.936;2024-02-15T03:53:11;100442.16;;;10.46;100.00
28310;BME280;15571;50.974;13.936;2024-02-15T03:56:14;100443.91;;;10.55;100.00
28310;BME280;15571;50.974;13.936;2024-02-15T03:59:18;100432.56;;;10.54;100.00
28310;BME280;15571;50.974;13.936;2024-02-15T04:02:27;100443.03;;;10.53;100.00
28310;BME280;15571;50.974;13.936;2024-02-15T04:05:29;100435.19;;;10.56;100.00
28310;BME280;15571;50.974;13.936;2024-02-15T04:08:31;100436.03;;;10.66;100.00
28310;BME280;15571;50.974;13.936;2024-02-15T04:11:34;100441.31;;;10.55;100.00
28310;BME280;15571;50.974;13.936;2024-02-15T04:14:37;100445.66;;;10.53;100.00
28310;BME280;15571;50.974;13.936;2024-02-15T04:17:39;100440.41;;;10.59;100.00
28310;BME280;15571;50.974;13.936;2024-02-15T04:20:43;100450.91;;;10.56;100.00
28310;BME280;15571;50.974;13.936;2024-02-15T04:23:46;100450.88;;;10.59;100.00
28310;BME280;15571;50.974;13.936;2024-02-15T04:26:48;100447.41;;;10.57;100.00
28310;BME280;15571;50.974;13.936;2024-02-15T04:29:53;100446.53;;;10.58;100.00
28310;BME280;15571;50.974;13.936;2024-02-15T04:32:55;100451.75;;;10.61;100.00
28310;BME280;15571;50.974;13.936;2024-02-15T04:35:57;100452.63;;;10.58;100.00
28310;BME280;15571;50.974;13.936;2024-02-15T04:38:59;100454.38;;;10.59;100.00
28310;BME280;15571;50.974;13.936;2024-02-15T04:42:01;100450.88;;;10.65;100.00
28310;BME280;15571;50.974;13.936;2024-02-15T04:45:05;100450.91;;;10.56;100.00
28310;BME280;15571;50.974;13.936;2024-02-15T04:48:16;100453.50;;;10.65;100.00
28310;BME280;15571;50.974;13.936;2024-02-15T04:51:19;100450.00;;;10.65;100.00
28310;BME280;15571;50.974;13.936;2024-02-15T04:54:21;100451.69;;;10.80;100.00
28310;BME280;15571;50.974;13.936;2024-02-15T04:57:24;100458.72;;;10.64;100.00
28310;BME280;15571;50.974;13.936;2024-02-15T05:00:29;100448.22;;;10.74;100.00
28310;BME280;15571;50.974;13.936;2024-02-15T05:03:31;100443.91;;;10.67;100.00
28310;BME280;15571;50.974;13.936;2024-02-15T05:06:35;100463.09;;;10.63;100.00
28310;BME280;15571;50.974;13.936;2024-02-15T05:09:37;100450.88;;;10.65;100.00
28310;BME280;15571;50.974;13.936;2024-02-15T05:12:39;100458.72;;;10.65;100.00
28310;BME280;15571;50.974;13.936;2024-02-15T05:15:44;100466.56;;;10.68;100.00
28310;BME280;15571;50.974;13.936;2024-02-15T05:18:46;100464.84;;;10.67;100.00
28310;BME280;15571;50.974;13.936;2024-02-15T05:21:51;100465.69;;;10.69;100.00
28310;BME280;15571;50.974;13.936;2024-02-15T05:24:53;100472.69;;;10.66;100.00
28310;BME280;15571;50.974;13.936;2024-02-15T05:27:55;100470.94;;;10.60;100.00
28310;BME280;15571;50.974;13.936;2024-02-15T05:31:10;100470.94;;;10.65;100.00
28310;BME280;15571;50.974;13.936;2024-02-15T05:34:14;100471.81;;;10.65;100.00
28310;BME280;15571;50.974;13.936;2024-02-15T05:37:18;100471.78;;;10.68;100.00
28310;BME280;15571;50.974;13.936;2024-02-15T05:40:20;100469.19;;;10.71;100.00
28310;BME280;15571;50.974;13.936;2024-02-15T05:43:22;100463.06;;;10.74;100.00
28310;BME280;15571;50.974;13.936;2024-02-15T05:46:26;100468.31;;;10.69;100.00
28310;BME280;15571;50.974;13.936;2024-02-15T05:49:28;100461.28;;;10.78;100.00
28310;BME280;15571;50.974;13.936;2024-02-15T05:52:30;100468.28;;;10.77;100.00
28310;BME280;15571;50.974;13.936;2024-02-15T05:55:32;100468.31;;;10.76;100.00
28310;BME280;15571;50.974;13.936;2024-02-15T05:58:36;100476.16;;;10.68;100.00
28310;BME280;15571;50.974;13.936;2024-02-15T06:01:39;100472.72;;;10.63;100.00
28310;BME280;15571;50.974;13.936;2024-02-15T06:04:41;100483.16;;;10.64;100.00
28310;BME280;15571;50.974;13.936;2024-02-15T06:07:43;100479.69;;;10.65;100.00
28310;BME280;15571;50.974;13.936;2024-02-15T06:10:48;100483.19;;;10.63;100.00
28310;BME280;15571;50.974;13.936;2024-02-15T06:13:53;100490.16;;;10.65;100.00
28310;BME280;15571;50.974;13.936;2024-02-15T06:16:56;100491.91;;;10.66;100.00
28310;BME280;15571;50.974;13.936;2024-02-15T06:19:58;100494.50;;;10.71;100.00
28310;BME280;15571;50.974;13.936;2024-02-15T06:23:03;100494.47;;;10.79;100.00
28310;BME280;15571;50.974;13.936;2024-02-15T06:26:07;100502.31;;;10.82;100.00
28310;BME280;15571;50.974;13.936;2024-02-15T06:29:09;100499.72;;;10.74;100.00
28310;BME280;15571;50.974;13.936;2024-02-15T06:32:38;100505.84;;;10.64;100.00
28310;BME280;15571;50.974;13.936;2024-02-15T06:35:58;100505.00;;;10.66;100.00
28310;BME280;15571;50.974;13.936;2024-02-15T06:39:17;100507.59;;;10.65;100.00
28310;BME280;15571;50.974;13.936;2024-02-15T06:42:36;100517.19;;;10.64;100.00
28310;BME280;15571;50.974;13.936;2024-02-15T06:45:39;100517.22;;;10.67;100.00
28310;BME280;15571;50.974;13.936;2024-02-15T06:48:46;100525.94;;;10.66;100.00
28310;BME280;15571;50.974;13.936;2024-02-15T06:51:48;100523.28;;;10.72;100.00
28310;BME280;15571;50.974;13.936;2024-02-15T06:54:50;100523.31;;;10.63;100.00
28310;BME280;15571;50.974;13.936;2024-02-15T06:57:55;100531.16;;;10.60;100.00
28310;BME280;15571;50.974;13.936;2024-02-15T07:00:57;100522.41;;;10.70;100.00
28310;BME280;15571;50.974;13.936;2024-02-15T07:04:01;100517.19;;;10.73;100.00
28310;BME280;15571;50.974;13.936;2024-02-15T07:07:03;100518.03;;;10.82;100.00
28310;BME280;15571;50.974;13.936;2024-02-15T07:10:05;100525.03;;;10.86;100.00
28310;BME280;15571;50.974;13.936;2024-02-15T07:13:08;100518.91;;;10.78;100.00
28310;BME280;15571;50.974;13.936;2024-02-15T07:16:12;100520.63;;;11.00;100.00
28310;BME280;15571;50.974;13.936;2024-02-15T07:19:17;100507.53;;;10.99;100.00
28310;BME280;15571;50.974;13.936;2024-02-15T07:22:19;100518.91;;;10.88;100.00
28310;BME280;15571;50.974;13.936;2024-02-15T07:25:22;100514.53;;;10.90;100.00
28310;BME280;15571;50.974;13.936;2024-02-15T07:28:24;100509.28;;;11.01;100.00
28310;BME280;15571;50.974;13.936;2024-02-15T07:31:27;100509.28;;;11.04;100.00
28310;BME280;15571;50.974;13.936;2024-02-15T07:34:31;100510.97;;;11.13;100.00
28310;BME280;15571;50.974;13.936;2024-02-15T07:37:33;100510.09;;;11.10;100.00
28310;BME280;15571;50.974;13.936;2024-02-15T07:40:35;100507.47;;;11.17;100.00
28310;BME280;15571;50.974;13.936;2024-02-15T07:43:39;100507.50;;;11.13;100.00
28310;BME280;15571;50.974;13.936;2024-02-15T07:46:41;100510.06;;;11.25;100.00
28310;BME280;15571;50.974;13.936;2024-02-15T07:49:44;100512.69;;;11.19;100.00
28310;BME280;15571;50.974;13.936;2024-02-15T07:52:47;100517.06;;;11.17;100.00
28310;BME280;15571;50.974;13.936;2024-02-15T07:55:49;100517.06;;;11.17;100.00
28310;BME280;15571;50.974;13.936;2024-02-15T07:58:51;100509.22;;;11.23;100.00
28310;BME280;15571;50.974;13.936;2024-02-15T08:01:53;100504.81;;;11.31;100.00
28310;BME280;15571;50.974;13.936;2024-02-15T08:04:56;100501.34;;;11.23;100.00
28310;BME280;15571;50.974;13.936;2024-02-15T08:07:58;100510.91;;;11.27;100.00
28310;BME280;15571;50.974;13.936;2024-02-15T08:11:02;100493.47;;;11.25;100.00
28310;BME280;15571;50.974;13.936;2024-02-15T08:14:04;100504.78;;;11.33;100.00
28310;BME280;15571;50.974;13.936;2024-02-15T08:17:10;100503.09;;;11.21;100.00
28310;BME280;15571;50.974;13.936;2024-02-15T08:20:14;100502.13;;;11.41;100.00
28310;BME280;15571;50.974;13.936;2024-02-15T08:23:21;100499.53;;;11.41;100.00
28310;BME280;15571;50.974;13.936;2024-02-15T08:26:23;100496.84;;;11.47;100.00
28310;BME280;15571;50.974;13.936;2024-02-15T08:29:25;100498.59;;;11.52;100.00
28310;BME280;15571;50.974;13.936;2024-02-15T08:32:27;100497.72;;;11.52;100.00
28310;BME280;15571;50.974;13.936;2024-02-15T08:35:30;100492.44;;;11.61;100.00
28310;BME280;15571;50.974;13.936;2024-02-15T08:38:32;100487.13;;;11.67;100.00
28310;BME280;15571;50.974;13.936;2024-02-15T08:41:35;100487.09;;;11.77;100.00
28310;BME280;15571;50.974;13.936;2024-02-15T08:44:39;100481.72;;;11.95;100.00
28310;BME280;15571;50.974;13.936;2024-02-15T08:47:41;100471.22;;;12.02;100.00
28310;BME280;15571;50.974;13.936;2024-02-15T08:50:45;100475.50;;;12.13;100.00
28310;BME280;15571;50.974;13.936;2024-02-15T08:53:48;100483.41;;;12.06;100.00
28310;BME280;15571;50.974;13.936;2024-02-15T08:56:50;100483.41;;;12.06;100.00
28310;BME280;15571;50.974;13.936;2024-02-15T08:59:52;100479.88;;;12.11;100.00
28310;BME280;15571;50.974;13.936;2024-02-15T09:02:58;100481.53;;;12.28;100.00
28310;BME280;15571;50.974;13.936;2024-02-15T09:06:01;100482.34;;;12.33;100.00
28310;BME280;15571;50.974;13.936;2024-02-15T09:09:05;100478.81;;;12.36;100.00
28310;BME280;15571;50.974;13.936;2024-02-15T09:12:07;100486.59;;;12.45;100.00
28310;BME280;15571;50.974;13.936;2024-02-15T09:15:09;100494.31;;;12.62;100.00
28310;BME280;15571;50.974;13.936;2024-02-15T09:18:11;100497.88;;;12.58;100.00
28310;BME280;15571;50.974;13.936;2024-02-15T09:21:15;100497.88;;;12.56;100.00
28310;BME280;15571;50.974;13.936;2024-02-15T09:24:20;100504.00;;;12.55;100.00
28310;BME280;15571;50.974;13.936;2024-02-15T09:27:22;100504.00;;;12.55;100.00
28310;BME280;15571;50.974;13.936;2024-02-15T09:30:24;100504.06;;;12.52;100.00
28310;BME280;15571;50.974;13.936;2024-02-15T09:33:28;100502.13;;;12.71;100.00
28310;BME280;15571;50.974;13.936;2024-02-15T09:36:34;100505.72;;;12.63;100.00
28310;BME280;15571;50.974;13.936;2024-02-15T09:39:41;100503.03;;;12.66;100.00
28310;BME280;15571;50.974;13.936;2024-02-15T09:42:47;100506.56;;;12.66;100.00
28310;BME280;15571;50.974;13.936;2024-02-15T09:45:49;100506.50;;;12.69;100.00
28310;BME280;15571;50.974;13.936;2024-02-15T09:48:51;100511.81;;;12.66;100.00
28310;BME280;15571;50.974;13.936;2024-02-15T09:52:00;100503.94;;;12.66;100.00
28310;BME280;15571;50.974;13.936;2024-02-15T09:55:03;100505.66;;;12.66;100.00
28310;BME280;15571;50.974;13.936;2024-02-15T09:58:05;100510.94;;;12.66;100.00
28310;BME280;15571;50.974;13.936;2024-02-15T10:01:07;100510.91;;;12.69;100.00
28310;BME280;15571;50.974;13.936;2024-02-15T10:04:11;100514.31;;;12.77;100.00
28310;BME280;15571;50.974;13.936;2024-02-15T10:07:18;100517.88;;;12.73;100.00
28310;BME280;15571;50.974;13.936;2024-02-15T10:10:21;100512.63;;;12.73;100.00
28310;BME280;15571;50.974;13.936;2024-02-15T10:13:23;100517.84;;;12.74;100.00
28310;BME280;15571;50.974;13.936;2024-02-15T10:16:25;100509.13;;;12.71;100.00
28310;BME280;15571;50.974;13.936;2024-02-15T10:19:27;100509.06;;;12.77;100.00
28310;BME280;15571;50.974;13.936;2024-02-15T10:22:36;100495.03;;;12.81;100.00
28310;BME280;15571;50.974;13.936;2024-02-15T10:25:40;100502.03;;;12.82;100.00
28310;BME280;15571;50.974;13.936;2024-02-15T10:28:42;100497.56;;;12.89;100.00
28310;BME280;15571;50.974;13.936;2024-02-15T10:31:52;100491.31;;;13.01;100.00
28310;BME280;15571;50.974;13.936;2024-02-15T10:34:55;100483.34;;;13.07;100.00
28310;BME280;15571;50.974;13.936;2024-02-15T10:38:06;100483.25;;;13.16;100.00
28310;BME280;15571;50.974;13.936;2024-02-15T10:41:09;100487.63;;;13.14;100.00
28310;BME280;15571;50.974;13.936;2024-02-15T10:44:15;100487.63;;;13.17;100.00
28310;BME280;15571;50.974;13.936;2024-02-15T10:47:26;100494.53;;;13.24;100.00
28310;BME280;15571;50.974;13.936;2024-02-15T10:50:28;100487.53;;;13.23;100.00
28310;BME280;15571;50.974;13.936;2024-02-15T10:53:32;100490.00;;;13.39;100.00
28310;BME280;15571;50.974;13.936;2024-02-15T10:56:37;100480.28;;;13.44;100.00
28310;BME280;15571;50.974;13.936;2024-02-15T10:59:47;100474.03;;;13.56;100.00
28310;BME280;15571;50.974;13.936;2024-02-15T11:02:58;100475.53;;;13.73;100.00
28310;BME280;15571;50.974;13.936;2024-02-15T11:06:02;100475.47;;;13.77;100.00
28310;BME280;15571;50.974;13.936;2024-02-15T11:09:08;100463.03;;;13.89;100.00
28310;BME280;15571;50.974;13.936;2024-02-15T11:12:11;100465.47;;;13.99;100.00
28310;BME280;15571;50.974;13.936;2024-02-15T11:15:22;100462.69;;;14.09;100.00
28310;BME280;15571;50.974;13.936;2024-02-15T11:18:51;100459.97;;;14.13;100.00
28310;BME280;15571;50.974;13.936;2024-02-15T11:21:55;100461.56;;;14.24;100.00
28310;BME280;15571;50.974;13.936;2024-02-15T11:24:59;100457.13;;;14.29;100.00
28310;BME280;15571;50.974;13.936;2024-02-15T11:34:41;100455.97;;;14.42;100.00
28310;BME280;15571;50.974;13.936;2024-02-15T11:37:57;100460.41;;;14.42;100.00
28310;BME280;15571;50.974;13.936;2024-02-15T11:41:06;100450.88;;;14.33;100.00
28310;BME280;15571;50.974;13.936;2024-02-15T11:44:10;100450.84;;;14.36;100.00
28310;BME280;15571;50.974;13.936;2024-02-15T11:47:17;100448.97;;;14.43;100.00
28310;BME280;15571;50.974;13.936;2024-02-15T11:50:23;100454.34;;;14.35;100.00
28310;BME280;15571;50.974;13.936;2024-02-15T11:53:25;100456.09;;;14.36;100.00
28310;BME280;15571;50.974;13.936;2024-02-15T11:56:29;100456.13;;;14.35;100.00
28310;BME280;15571;50.974;13.936;2024-02-15T11:59:40;100450.88;;;14.33;100.00
28310;BME280;15571;50.974;13.936;2024-02-15T12:03:14;100454.41;;;14.32;100.00
28310;BME280;15571;50.974;13.936;2024-02-15T12:06:34;100450.06;;;14.29;100.00
28310;BME280;15571;50.974;13.936;2024-02-15T12:09:57;100446.41;;;14.37;100.00
28310;BME280;15571;50.974;13.936;2024-02-15T12:13:18;100449.84;;;14.42;100.00
28310;BME280;15571;50.974;13.936;2024-02-15T12:16:37;100438.28;;;14.51;100.00
28310;BME280;15571;50.974;13.936;2024-02-15T12:19:57;100436.38;;;14.59;100.00
28310;BME280;15571;50.974;13.936;2024-02-15T12:23:01;100438.88;;;14.68;100.00
28310;BME280;15571;50.974;13.936;2024-02-15T12:26:04;100439.53;;;14.79;100.00
28310;BME280;15571;50.974;13.936;2024-02-15T12:29:07;100436.78;;;14.84;100.00
28310;BME280;15571;50.974;13.936;2024-02-15T12:32:10;100422.63;;;14.91;100.00
28310;BME280;15571;50.974;13.936;2024-02-15T12:35:16;100420.00;;;14.90;100.00
28310;BME280;15571;50.974;13.936;2024-02-15T12:38:20;100406.72;;;14.96;100.00
28310;BME280;15571;50.974;13.936;2024-02-15T12:41:22;100409.25;;;14.99;100.00
28310;BME280;15571;50.974;13.936;2024-02-15T12:44:28;100402.97;;;15.06;100.00
28310;BME280;15571;50.974;13.936;2024-02-15T12:47:33;100415.91;;;15.17;100.00
28310;BME280;15571;50.974;13.936;2024-02-15T12:50:38;100406.22;;;15.19;100.00
28310;BME280;15571;50.974;13.936;2024-02-15T12:53:39;100399.09;;;15.23;100.00
28310;BME280;15571;50.974;13.936;2024-02-15T12:56:42;100399.78;;;15.33;100.00
28310;BME280;15571;50.974;13.936;2024-02-15T12:59:46;100403.22;;;15.36;100.00
28310;BME280;15571;50.974;13.936;2024-02-15T13:02:48;100399.47;;;15.45;100.00
28310;BME280;15571;50.974;13.936;2024-02-15T13:05:50;100402.09;;;15.47;100.00
28310;BME280;15571;50.974;13.936;2024-02-15T13:08:52;100394.09;;;15.50;100.00
28310;BME280;15571;50.974;13.936;2024-02-15T13:11:54;100397.53;;;15.53;100.00
28310;BME280;15571;50.974;13.936;2024-02-15T13:14:57;100402.63;;;15.61;100.00
28310;BME280;15571;50.974;13.936;2024-02-15T13:17:59;100399.16;;;15.59;100.00
28310;BME280;15571;50.974;13.936;2024-02-15T13:21:01;100394.66;;;15.64;100.00
28310;BME280;15571;50.974;13.936;2024-02-15T13:24:06;100400.72;;;15.68;100.00
28310;BME280;15571;50.974;13.936;2024-02-15T13:27:11;100390.06;;;15.72;100.00
28310;BME280;15571;50.974;13.936;2024-02-15T13:30:14;100390.22;;;15.66;100.00
28310;BME280;15571;50.974;13.936;2024-02-15T13:33:21;100391.91;;;15.69;100.00
28310;BME280;15571;50.974;13.936;2024-02-15T13:36:23;100398.88;;;15.71;100.00
28310;BME280;15571;50.974;13.936;2024-02-15T13:39:26;100395.50;;;15.65;100.00
28310;BME280;15571;50.974;13.936;2024-02-15T13:42:33;100388.31;;;15.71;100.00
28310;BME280;15571;50.974;13.936;2024-02-15T13:45:40;100384.72;;;15.76;100.00
28310;BME280;15571;50.974;13.936;2024-02-15T13:48:42;100386.44;;;15.77;100.00
28310;BME280;15571;50.974;13.936;2024-02-15T13:51:47;100391.53;;;15.86;100.00
28310;BME280;15571;50.974;13.936;2024-02-15T13:54:52;100386.88;;;15.96;100.00
28310;BME280;15571;50.974;13.936;2024-02-15T13:57:54;100384.06;;;16.02;100.00
28310;BME280;15571;50.974;13.936;2024-02-15T14:00:59;100377.75;;;16.09;100.00
28310;BME280;15571;50.974;13.936;2024-02-15T14:04:03;100380.09;;;16.20;100.00
28310;BME280;15571;50.974;13.936;2024-02-15T14:07:13;100368.56;;;16.24;100.00
28310;BME280;15571;50.974;13.936;2024-02-15T14:10:17;100375.69;;;16.21;100.00
28310;BME280;15571;50.974;13.936;2024-02-15T14:13:21;100369.00;;;16.07;100.00
28310;BME280;15571;50.974;13.936;2024-02-15T14:16:27;100372.03;;;16.25;100.00
28310;BME280;15571;50.974;13.936;2024-02-15T14:19:30;100365.88;;;16.26;100.00
28310;BME280;15571;50.974;13.936;2024-02-15T14:22:31;100373.00;;;16.22;100.00
28310;BME280;15571;50.974;13.936;2024-02-15T14:25:34;100366.94;;;16.18;100.00
28310;BME280;15571;50.974;13.936;2024-02-15T14:28:38;100373.25;;;16.13;100.00
28310;BME280;15571;50.974;13.936;2024-02-15T14:31:43;100370.00;;;16.01;100.00
28310;BME280;15571;50.974;13.936;2024-02-15T14:35:03;100365.75;;;15.96;100.00
28310;BME280;15571;50.974;13.936;2024-02-15T14:38:08;100360.63;;;15.90;100.00
28310;BME280;15571;50.974;13.936;2024-02-15T14:41:11;100365.16;;;15.83;100.00
28310;BME280;15571;50.974;13.936;2024-02-15T14:44:13;100366.94;;;15.84;100.00
28310;BME280;15571;50.974;13.936;2024-02-15T14:47:16;100360.06;;;15.77;100.00
28310;BME280;15571;50.974;13.936;2024-02-15T14:50:20;100354.69;;;15.80;100.00
28310;BME280;15571;50.974;13.936;2024-02-15T14:53:24;100351.13;;;15.81;100.00
28310;BME280;15571;50.974;13.936;2024-02-15T14:56:27;100357.66;;;15.67;100.00
28310;BME280;15571;50.974;13.936;2024-02-15T14:59:29;100361.25;;;15.63;100.00
28310;BME280;15571;50.974;13.936;2024-02-15T15:02:33;100352.44;;;15.64;100.00
28310;BME280;15571;50.974;13.936;2024-02-15T15:05:35;100354.06;;;15.68;100.00
28310;BME280;15571;50.974;13.936;2024-02-15T15:08:54;100355.97;;;15.63;100.00
28310;BME280;15571;50.974;13.936;2024-02-15T15:12:13;100349.78;;;15.64;100.00
28310;BME280;15571;50.974;13.936;2024-02-15T15:15:33;100348.84;;;15.67;100.00
28310;BME280;15571;50.974;13.936;2024-02-15T15:18:36;100350.03;;;15.55;100.00
28310;BME280;15571;50.974;13.936;2024-02-15T15:21:38;100348.34;;;15.51;100.00
28310;BME280;15571;50.974;13.936;2024-02-15T15:24:40;100349.41;;;15.44;100.00
28310;BME280;15571;50.974;13.936;2024-02-15T15:27:43;100347.59;;;15.46;100.00
28310;BME280;15571;50.974;13.936;2024-02-15T15:30:44;100343.94;;;15.51;100.00
28310;BME280;15571;50.974;13.936;2024-02-15T15:33:50;100341.56;;;15.40;100.00
28310;BME280;15571;50.974;13.936;2024-02-15T15:36:53;100338.06;;;15.38;100.00
28310;BME280;15571;50.974;13.936;2024-02-15T15:39:55;100339.00;;;15.37;100.00
28310;BME280;15571;50.974;13.936;2024-02-15T15:42:57;100349.63;;;15.34;100.00
28310;BME280;15571;50.974;13.936;2024-02-15T15:45:59;100353.41;;;15.22;100.00